K5-CU

EHJJ · Países Baixos

História da METAR EHJJ · K5-CU

Abaixo você vê METARs dos últimos dias. Selecione um ano para navegar pelos METARs mais antigos, a partir do ano 2007.

15 de julho de 2024

Hora Código Clima Temp. Visibilidade Tecto Vento METAR/SPECI
00:25
I
13 °C 10 km+ 600 ft 260° 260° 23 kt METAR EHJA 142225Z AUTO 26023KT 9999 SCT005/// BKN006/// BKN007/// 13/12 Q1010

14 de julho de 2024

Hora Código Clima Temp. Visibilidade Tecto Vento METAR/SPECI
23:55
I
14 °C 10 km+ 600 ft 250° 250° 22 kt METAR EHJA 142155Z AUTO 25022KT 9999 FEW005/// BKN006/// BKN008/// 14/13 Q1010
23:25
I
14 °C 10 km+ 700 ft 250° 250° 23 kt METAR EHJA 142125Z AUTO 25023KT 9999 SCT005/// BKN007/// BKN008/// 14/13 Q1010
22:55
I
14 °C 9 km 600 ft 260° 260° 24 kt METAR EHJA 142055Z AUTO 26024KT 9000 SCT005/// BKN006/// OVC008/// 14/13 Q1009
22:25
I
14 °C 10 km+ 600 ft 250° 250° 26 kt METAR EHJA 142025Z AUTO 25026KT 9999 SCT005/// OVC006/// 14/12 Q1009
21:55
I
14 °C 10 km+ 700 ft 260° 260° 25 kt METAR EHJA 141955Z AUTO 26025KT 9999 SCT005/// OVC007/// 14/13 Q1009
21:25
I
14 °C 10 km+ 700 ft 250° 250° 25 kt METAR EHJA 141925Z AUTO 25025KT 9999 SCT006/// OVC007/// 14/12 Q1009
20:55
I
14 °C 10 km+ 700 ft 260° 260° 25 kt METAR EHJA 141855Z AUTO 26025KT 9999 FEW006/// BKN007/// OVC008/// 14/12 Q1009
20:25
I
14 °C 10 km+ 700 ft 250° 250° 26 kt METAR EHJA 141825Z AUTO 25026KT 9999 SCT005/// BKN007/// BKN008/// 14/12 Q1009
19:55
I
14 °C 10 km+ 600 ft 260° 260° 25 kt METAR EHJA 141755Z AUTO 26025KT 9999 SCT005/// BKN006/// BKN007/// 14/12 Q1009
19:25
I
14 °C 10 km+ 700 ft 260° 260° 25 kt METAR EHJA 141725Z AUTO 26025KT 9999 SCT005/// BKN007/// OVC008/// 14/13 Q1009
18:55
I
14 °C 6 km 600 ft 260° 260° 25 kt METAR EHJA 141655Z AUTO 26025KT 6000 SCT005/// BKN006/// BKN007/// 14/13 Q1008
18:25
I
14 °C 10 km+ 500 ft 250° 250° 28 kt METAR EHJA 141625Z AUTO 25028KT 9999 FEW004/// BKN005/// OVC007/// 14/13 Q1008
17:55
I
13 °C 10 km+ 600 ft 250° 250° 27 kt METAR EHJA 141555Z AUTO 25027KT 9999 FEW003/// SCT004/// BKN006/// 13/13 Q1008
17:25
I
13 °C 2,5 km 500 ft 250° 250° 27 kt METAR EHJA 141525Z AUTO 25027KT 2500 BR FEW002/// SCT004/// BKN005/// 13/13 Q1008 REDZ
16:55
I
13 °C 2,4 km 600 ft 250° 250° 28 kt METAR EHJA 141455Z AUTO 25028KT 2400 BR FEW002/// SCT005/// BKN006/// 13/13 Q1008
16:25
I
14 °C 10 km+ 600 ft 250° 250° 29 kt METAR EHJA 141425Z AUTO 25029KT 9999 FEW003/// SCT005/// BKN006/// 14/13 Q1008
15:55
I
14 °C 10 km+ 500 ft 250° 250° 28 kt METAR EHJA 141355Z AUTO 25028KT 9999 FEW004/// BKN005/// OVC007/// 14/13 Q1008
15:25
I
14 °C 10 km+ 500 ft 250° 250° 28 kt METAR EHJA 141325Z AUTO 25028KT 9999 FEW004/// BKN005/// OVC006/// 14/13 Q1007
14:55
I
14 °C 10 km+ 500 ft 250° 250° 27 kt METAR EHJA 141255Z AUTO 25027KT 9999 BKN005/// OVC006/// 14/13 Q1007
14:25
I
14 °C 10 km+ 500 ft 250° 250° 27 kt METAR EHJA 141225Z AUTO 25027KT 9999 FEW004/// BKN005/// OVC006/// 14/13 Q1007
13:55
I
14 °C 10 km+ 500 ft 250° 250° 27 kt METAR EHJA 141155Z AUTO 25027KT 9999 SCT004/// BKN005/// OVC006/// 14/13 Q1007
13:25
L
14 °C 10 km+ 400 ft 250° 250° 26 kt METAR EHJA 141125Z AUTO 25026KT 9999 FEW003/// BKN004/// BKN005/// 14/13 Q1007
12:55
I
14 °C 10 km+ 500 ft 250° 250° 25 kt METAR EHJA 141055Z AUTO 25025KT 9999 FEW002/// SCT004/// BKN005/// 14/13 Q1007
12:25
L
14 °C 10 km+ 400 ft 250° 250° 25 kt METAR EHJA 141025Z AUTO 25025KT 9999 FEW002/// SCT003/// BKN004/// 14/14 Q1006
11:55
L
14 °C 6 km 300 ft 250° 250° 23 kt METAR EHJA 140955Z AUTO 25023KT 6000 FEW001/// BKN003/// BKN004/// 14/14 Q1006
11:25
L
14 °C 5 km 100 ft 250° 250° 24 kt METAR EHJA 140925Z AUTO 25024KT 5000 BR BKN001/// BKN002/// OVC003/// 14/14 Q1006
10:55
L
14 °C 3,6 km 200 ft 250° 250° 23 kt METAR EHJA 140855Z AUTO 25023KT 3600 BR SCT001/// OVC002/// 14/14 Q1006
10:25
L
14 °C 4,3 km 200 ft 240° 240° 31 kt METAR EHJA 140825Z AUTO 24031KT 4300 BR BKN002/// OVC003/// 14/14 Q1006
09:55
L
13 °C 4,1 km 300 ft 240° 240° 32 kt METAR EHJA 140755Z AUTO 24032KT 4100 BR SCT002/// BKN003/// OVC005/// 13/13 Q1005
09:25
L
13 °C 3,3 km 400 ft 230° 230° 36 kt METAR EHJA 140725Z AUTO 23036KT 3300 BR FEW003/// BKN004/// OVC006/// 13/13 Q1005
08:55
I
13 °C 2,8 km 600 ft 230° 230° 36 kt METAR EHJA 140655Z AUTO 23036KT 2800 BR FEW003/// SCT004/// BKN006/// 13/13 Q1005
08:25
I
13 °C 4 km 800 ft 230° 230° 36 kt METAR EHJA 140625Z AUTO 23036KT 4000 BR FEW004/// SCT006/// BKN008/// 13/13 Q1005
07:55
I
13 °C 4,2 km 600 ft 230° 230° 35 kt METAR EHJA 140555Z AUTO 23035KT 4200 -RA FEW005/// BKN006/// BKN008/// 13/13 Q1006
07:25
I
13 °C 4,9 km 700 ft 230° 230° 36 kt METAR EHJA 140525Z AUTO 23036KT 4900 -RA SCT006/// OVC007/// 13/12 Q1006
06:55
I
13 °C 10 km+ 700 ft 240° 240° 36 kt METAR EHJA 140455Z AUTO 24036KT 9999 -RA FEW005/// BKN007/// OVC008/// 13/12 Q1006 RERA REDZ
06:25
I
13 °C 10 km+ 700 ft 240° 240° 38 kt METAR EHJA 140425Z AUTO 24038KT 9999 -RA FEW005/// BKN007/// OVC008/// 13/12 Q1005
05:55
I
13 °C 10 km+ 700 ft 240° 240° 40 kt METAR EHJA 140355Z AUTO 24040KT 9999 BKN007/// OVC008/// 13/12 Q1005
05:25
I
13 °C 10 km+ 800 ft 240° 240° 38 kt METAR EHJA 140325Z AUTO 24038KT 9999 FEW007/// BKN008/// OVC010/// 13/12 Q1005
04:55
M
14 °C 10 km+ 1.000 ft 240° 240° 38 kt METAR EHJA 140255Z AUTO 24038KT 9999 FEW007/// SCT008/// BKN010/// 14/12 Q1005
04:25
M
14 °C 10 km+ 1.300 ft 240° 240° 37 kt METAR EHJA 140225Z AUTO 24037KT 9999 -RA FEW007/// SCT009/// BKN013/// 14/12 Q1005
03:55
I
13 °C 4,7 km 1.300 ft 240° 240° 37 kt METAR EHJA 140155Z AUTO 24037KT 4700 -DZ FEW007/// SCT010/// BKN013/// 13/12 Q1006 REDZ
03:25
I
13 °C 4,1 km 1.200 ft 240° 240° 34 kt METAR EHJA 140125Z AUTO 24034KT 4100 DZ FEW007/// SCT010/// BKN012/// 13/12 Q1006
02:55
M
13 °C 6 km 1.100 ft 240° 240° 34 kt METAR EHJA 140055Z AUTO 24034KT 6000 +DZ FEW009/// BKN011/// OVC013/// 13/12 Q1007
02:25
M
14 °C 10 km+ 1.000 ft 240° 240° 33 kt METAR EHJA 140025Z AUTO 24033KT 9999 SCT008/// OVC010/// 14/11 Q1007
01:55
I
13 °C 10 km+ 900 ft 240° 240° 35 kt METAR EHJA 132355Z AUTO 24035KT 9999 -RA SCT007/// BKN009/// OVC010/// 13/11 Q1007 RERA REDZ
01:25
I
13 °C 10 km+ 800 ft 240° 240° 35 kt METAR EHJA 132325Z AUTO 24035KT 9999 DZ SCT007/// BKN008/// OVC010/// 13/12 Q1007
00:55
I
14 °C 10 km+ 800 ft 240° 240° 32 kt METAR EHJA 132255Z AUTO 24032KT 9999 -DZRA FEW007/// BKN008/// OVC010/// 14/12 Q1007
00:25
I
14 °C 10 km+ 900 ft 250° 250° 30 kt METAR EHJA 132225Z AUTO 25030KT 9999 FEW007/// SCT008/// BKN009/// 14/12 Q1007

13 de julho de 2024

Hora Código Clima Temp. Visibilidade Tecto Vento METAR/SPECI
23:55
I
14 °C 10 km+ 800 ft 250° 250° 28 kt METAR EHJA 132155Z AUTO 25028KT 9999 FEW007/// BKN008/// BKN010/// 14/12 Q1008
23:25
M
14 °C 10 km+ 1.000 ft 250° 250° 28 kt METAR EHJA 132125Z AUTO 25028KT 9999 FEW007/// SCT009/// BKN010/// 14/12 Q1008
22:55
M
14 °C 10 km+ 1.000 ft 250° 250° 28 kt METAR EHJA 132055Z AUTO 25028KT 9999 SCT008/// BKN010/// OVC015/// 14/12 Q1008
22:25
M
14 °C 10 km+ 1.000 ft 250° 250° 25 kt METAR EHJA 132025Z AUTO 25025KT 9999 FEW007/// SCT009/// BKN010/// 14/12 Q1008
21:55
M
14 °C 10 km+ 1.400 ft 250° 250° 24 kt METAR EHJA 131955Z AUTO 25024KT 9999 FEW007/// SCT009/// BKN014/// 14/13 Q1008
21:25
V
14 °C 10 km+ - 250° 250° 24 kt METAR EHJA 131925Z AUTO 25024KT 9999 FEW007/// SCT009/// 14/13 Q1008
20:55
M
14 °C 10 km+ 1.700 ft 250° 250° 23 kt METAR EHJA 131855Z AUTO 25023KT 9999 FEW007/// SCT009/// BKN017/// 14/12 Q1008
20:25
M
14 °C 10 km+ 1.500 ft 250° 250° 21 kt METAR EHJA 131825Z AUTO 25021KT 9999 FEW008/// SCT012/// BKN015/// 14/13 Q1008
19:55
M
15 °C 10 km+ 1.900 ft 260° 260° 22 kt METAR EHJA 131755Z AUTO 26022KT 9999 FEW008/// SCT015/// BKN019/// 15/13 Q1008
19:25
M
14 °C 10 km+ 1.500 ft 260° 260° 22 kt METAR EHJA 131725Z AUTO 26022KT 9999 FEW006/// SCT010/// BKN015/// 14/13 Q1008
18:55
M
15 °C 10 km+ 1.700 ft 270° 270° 22 kt METAR EHJA 131655Z AUTO 27022KT 9999 FEW006/// SCT008/// BKN017/// 15/13 Q1008
18:25
M
15 °C 10 km+ 1.200 ft 280° 280° 22 kt METAR EHJA 131625Z AUTO 28022KT 9999 FEW005/// SCT008/// BKN012/// 15/13 Q1008
17:55
V
15 °C 10 km+ 3.800 ft 260° 260° 20 kt METAR EHJA 131555Z AUTO 26020KT 9999 FEW005/// SCT029/// BKN038/// 15/14 Q1008
17:25
M
14 °C 6 km 2.700 ft 290° 290° 21 kt METAR EHJA 131525Z AUTO 29021KT 6000 -RA FEW005/// SCT023/// BKN027/// 14/13 Q1008 RERA REDZ
16:55
M
14 °C 10 km+ 1.700 ft 290° 290° 21 kt METAR EHJA 131455Z AUTO 29021KT 9999 -RA FEW005/// SCT006/// BKN017/// 14/13 Q1008
16:25
I
15 °C 10 km+ 900 ft 290° 290° 20 kt METAR EHJA 131425Z AUTO 29020KT 9999 SCT005/// SCT006/// BKN009/// 15/14 Q1008
15:55
M
15 °C 10 km+ 1.700 ft 290° 290° 20 kt METAR EHJA 131355Z AUTO 29020KT 9999 FEW005/// SCT006/// BKN017/// 15/14 Q1008
15:25
V
15 °C 10 km+ 4.200 ft 290° 290° 20 kt METAR EHJA 131325Z AUTO 29020KT 9999 FEW005/// SCT007/// BKN042/// 15/14 Q1008
14:55
I
15 °C 10 km+ 700 ft 290° 290° 17 kt METAR EHJA 131255Z AUTO 29017KT 9999 FEW005/// SCT006/// BKN007/// 15/14 Q1008
14:25
I
15 °C 10 km+ 800 ft 300° 300° 17 kt METAR EHJA 131225Z AUTO 30017KT 9999 FEW005/// SCT007/// BKN008/// 15/14 Q1008
13:55
I
15 °C 10 km+ 800 ft 300° 300° 17 kt METAR EHJA 131155Z AUTO 30017KT 9999 SCT006/// BKN008/// BKN010/// 15/13 Q1008
13:25
I
15 °C 10 km+ 600 ft 300° 300° 15 kt METAR EHJA 131125Z AUTO 30015KT 9999 FEW003/// BKN006/// BKN010/// 15/14 Q1008
12:55
V
14 °C 10 km+ 3.200 ft 300° 300° 11 kt METAR EHJA 131055Z AUTO 30011KT 9999 FEW003/// SCT009/// BKN032/// 14/14 Q1008 REDZ
12:25
M
14 °C 9 km 2.900 ft 300° 300° 13 kt METAR EHJA 131025Z AUTO 30013KT 9000 -RADZ FEW009/// SCT025/// BKN029/// 14/13 Q1008
11:55
I
14 °C 4,9 km 2.600 ft 320° 320° 16 kt METAR EHJA 130955Z AUTO 32016KT 4900 -UP FEW006/// SCT014/// BKN026/// 14/13 Q1008
11:25
M
15 °C 10 km+ 2.500 ft 330° 330° 14 kt METAR EHJA 130925Z AUTO 33014KT 290V350 9999 FEW006/// SCT009/// BKN025/// 15/13 Q1008
10:55
M
15 °C 10 km+ 2.400 ft 330° 330° 13 kt METAR EHJA 130855Z AUTO 33013KT 290V360 9999 FEW007/// BKN024/// 15/13 Q1008
10:25
M
15 °C 10 km+ 1.700 ft 330° 330° 12 kt METAR EHJA 130825Z AUTO 33012KT 290V350 9999 FEW007/// SCT008/// BKN017/// 15/13 Q1008
09:55
I
15 °C 10 km+ 800 ft 330° 330° 12 kt METAR EHJA 130755Z AUTO 33012KT 9999 SCT007/// BKN008/// BKN016/// 15/13 Q1008
09:25
M
15 °C 10 km+ 2.600 ft 330° 330° 10 kt METAR EHJA 130725Z AUTO 33010KT 280V040 9999 FEW007/// SCT009/// BKN026/// 15/13 Q1008
08:55
M
14 °C 10 km+ 2.000 ft 330° 330° 9 kt METAR EHJA 130655Z AUTO 33009KT 280V020 9999 FEW004/// SCT010/// BKN020/// 14/13 Q1008
08:25
M
14 °C 10 km+ 1.500 ft 330° 330° 7 kt METAR EHJA 130625Z AUTO 33007KT 270V030 9999 DZRA FEW006/// SCT010/// BKN015/// 14/13 Q1008
07:55
M
14 °C 10 km+ 1.800 ft 020° 020° 8 kt METAR EHJA 130555Z AUTO 02008KT 9999 DZ FEW008/// SCT014/// BKN018/// 14/13 Q1008
07:25
M
14 °C 8 km 2.000 ft 360° 360° 9 kt METAR EHJA 130525Z AUTO 36009KT 8000 +DZ FEW006/// SCT016/// BKN020/// 14/13 Q1008
06:55
M
14 °C 10 km+ 2.000 ft 360° 360° 9 kt METAR EHJA 130455Z AUTO 36009KT 9999 FEW006/// SCT016/// BKN020/// 14/13 Q1008
06:25
M
15 °C 10 km+ 1.600 ft 020° 020° 10 kt METAR EHJA 130425Z AUTO 02010KT 9999 FEW005/// SCT013/// BKN016/// 15/13 Q1008
05:55
M
15 °C 10 km+ 1.100 ft 030° 030° 8 kt METAR EHJA 130355Z AUTO 03008KT 9999 FEW004/// SCT007/// BKN011/// 15/13 Q1008
05:25
I
15 °C 10 km+ 900 ft 030° 030° 6 kt METAR EHJA 130325Z AUTO 03006KT 9999 FEW003/// SCT006/// BKN009/// 15/14 Q1008
04:55
M
15 °C 10 km+ 1.700 ft 350° 350° 8 kt METAR EHJA 130255Z AUTO 35008KT 300V010 9999 -DZ FEW003/// SCT007/// BKN017/// 15/14 Q1008 REDZ
04:25
M
14 °C 7 km 2.900 ft 330° 330° 15 kt METAR EHJA 130225Z AUTO 33015KT 7000 -DZ FEW003/// SCT017/// BKN029/// 14/14 Q1008 REDZ
03:55
M
15 °C 10 km+ 2.800 ft 330° 330° 16 kt METAR EHJA 130155Z AUTO 33016KT 9999 -RA FEW003/// SCT011/// BKN028/// 15/14 Q1009 RERA REDZ
03:25
M
15 °C 10 km+ 2.800 ft 330° 330° 17 kt METAR EHJA 130125Z AUTO 33017KT 9999 DZ FEW004/// SCT023/// BKN028/// 15/14 Q1009
02:55
M
14 °C 10 km+ 2.300 ft 330° 330° 18 kt METAR EHJA 130055Z AUTO 33018KT 9999 -RA FEW004/// SCT008/// BKN023/// 14/14 Q1009 RERA REDZ
02:25
I
14 °C 10 km+ 800 ft 330° 330° 19 kt METAR EHJA 130025Z AUTO 33019KT 9999 -RA FEW003/// SCT007/// BKN008/// 14/14 Q1010
01:55
I
14 °C 8 km 900 ft 330° 330° 19 kt METAR EHJA 122355Z AUTO 33019KT 8000 -RA FEW002/// SCT006/// BKN009/// 14/14 Q1010 RERA REDZ
01:25
M
14 °C 6 km 1.900 ft 330° 330° 20 kt METAR EHJA 122325Z AUTO 33020KT 6000 -RA FEW004/// SCT015/// BKN019/// 14/13 Q1010 RERA REDZ
00:55
M
14 °C 10 km+ 2.100 ft 330° 330° 21 kt METAR EHJA 122255Z AUTO 33021KT 9999 DZ FEW006/// SCT017/// BKN021/// 14/13 Q1010
00:25
M
14 °C 10 km+ 2.100 ft 330° 330° 20 kt METAR EHJA 122225Z AUTO 33020KT 9999 -SHRA FEW006/// SCT008/// BKN021/// 14/13 Q1011 REDZ

12 de julho de 2024

Hora Código Clima Temp. Visibilidade Tecto Vento METAR/SPECI
23:55
M
15 °C 10 km+ 2.600 ft 330° 330° 19 kt METAR EHJA 122155Z AUTO 33019KT 9999 DZ FEW007/// SCT018/// BKN026/// 15/13 Q1011
23:25
M
15 °C 10 km+ 2.900 ft 330° 330° 19 kt METAR EHJA 122125Z AUTO 33019KT 260V010 9999 -RA FEW007/// SCT011/// BKN029/// 15/13 Q1011 RERA REDZ
22:55
M
15 °C 10 km+ 1.200 ft 330° 330° 19 kt METAR EHJA 122055Z AUTO 33019KT 9999 -RADZ FEW007/// SCT008/// BKN012/// 15/13 Q1011 RERA REDZ
22:25
M
15 °C 10 km+ 2.000 ft 350° 350° 17 kt METAR EHJA 122025Z AUTO 35017KT 9999 -RADZ FEW007/// SCT012/// BKN020/// 15/13 Q1011
21:55
M
14 °C 9 km 2.100 ft 330° 330° 18 kt METAR EHJA 121955Z AUTO 33018KT 290V010 9000 -DZ FEW007/// SCT015/// BKN021/// 14/13 Q1011 REDZ
21:25
M
15 °C 10 km+ 2.200 ft 330° 330° 18 kt METAR EHJA 121925Z AUTO 33018KT 280V030 9999 FEW003/// SCT012/// BKN022/// 15/13 Q1011
20:55
M
14 °C 10 km+ 1.700 ft 330° 330° 15 kt METAR EHJA 121855Z AUTO 33015KT 290V030 9999 FEW003/// SCT008/// BKN017/// 14/14 Q1011 REDZ
20:25
M
14 °C 5 km 1.900 ft 330° 330° 19 kt METAR EHJA 121825Z AUTO 33019KT 290V360 5000 +DZRA FEW004/// SCT008/// BKN019/// 14/13 Q1011
19:55
M
15 °C 10 km+ 1.500 ft 350° 350° 15 kt METAR EHJA 121755Z AUTO 35015KT 9999 FEW005/// SCT008/// BKN015/// 15/13 Q1012
19:25
M
15 °C 7 km 2.100 ft 330° 330° 15 kt METAR EHJA 121725Z AUTO 33015KT 290V360 7000 -DZ FEW005/// SCT013/// BKN021/// 15/14 Q1012 REDZ
18:55
M
15 °C 10 km+ 1.600 ft 350° 350° 13 kt METAR EHJA 121655Z AUTO 35013KT 9999 FEW002/// SCT008/// BKN016/// 15/13 Q1012
18:25
I
15 °C 10 km+ 800 ft 360° 360° 13 kt METAR EHJA 121625Z AUTO 36013KT 320V020 9999 FEW002/// SCT007/// BKN008/// 15/14 Q1012 REDZ
17:55
M
14 °C 5 km 1.000 ft 010° 010° 15 kt METAR EHJA 121555Z AUTO 01015KT 5000 -RA FEW002/// SCT008/// BKN010/// 14/14 Q1012 RERA REDZ
17:25
M
15 °C 10 km+ 1.900 ft 350° 350° 13 kt METAR EHJA 121525Z AUTO 35013KT 9999 FEW003/// SCT005/// BKN019/// 15/14 Q1012
16:55
I
15 °C 10 km+ 800 ft 330° 330° 13 kt METAR EHJA 121455Z AUTO 33013KT 270V010 9999 FEW001/// SCT005/// BKN008/// 15/14 Q1012
16:25
I
14 °C 10 km+ 800 ft 320° 320° 15 kt METAR EHJA 121425Z AUTO 32015KT 9999 FEW003/// SCT005/// BKN008/// 14/14 Q1013
15:55
I
14 °C 10 km+ 700 ft 320° 320° 15 kt METAR EHJA 121355Z AUTO 32015KT 9999 FEW002/// SCT005/// BKN007/// 14/13 Q1013
15:25
I
14 °C 10 km+ 700 ft 320° 320° 16 kt METAR EHJA 121325Z AUTO 32016KT 9999 FEW003/// SCT006/// BKN007/// 14/13 Q1013
14:55
I
14 °C 8 km 700 ft 320° 320° 17 kt METAR EHJA 121255Z AUTO 32017KT 8000 FEW003/// BKN007/// BKN008/// 14/13 Q1013
14:25
I
14 °C 7 km 900 ft 320° 320° 19 kt METAR EHJA 121225Z AUTO 32019KT 7000 FEW004/// SCT007/// BKN009/// 14/13 Q1013
13:55
M
14 °C 10 km+ 1.100 ft 320° 320° 18 kt METAR EHJA 121155Z AUTO 32018KT 9999 FEW004/// SCT007/// BKN011/// 14/13 Q1014
13:25
M
14 °C 10 km+ 1.000 ft 330° 330° 16 kt METAR EHJA 121125Z AUTO 33016KT 9999 FEW005/// BKN010/// BKN012/// 14/12 Q1014
12:55
M
14 °C 10 km+ 1.000 ft 330° 330° 17 kt METAR EHJA 121055Z AUTO 33017KT 300V360 9999 FEW006/// BKN010/// BKN013/// 14/12 Q1014
12:25
M
14 °C 10 km+ 1.200 ft 330° 330° 17 kt METAR EHJA 121025Z AUTO 33017KT 9999 FEW006/// SCT008/// BKN012/// 14/12 Q1014
11:55
M
14 °C 10 km+ 1.600 ft 330° 330° 16 kt METAR EHJA 120955Z AUTO 33016KT 290V350 9999 FEW007/// SCT009/// BKN016/// 14/12 Q1014
11:25
M
14 °C 10 km+ 1.000 ft 330° 330° 17 kt METAR EHJA 120925Z AUTO 33017KT 9999 FEW007/// SCT009/// BKN010/// 14/11 Q1014
10:55
M
14 °C 10 km+ 1.700 ft 330° 330° 15 kt METAR EHJA 120855Z AUTO 33015KT 9999 FEW007/// SCT010/// BKN017/// 14/12 Q1014
10:25
M
13 °C 9 km 2.100 ft 330° 330° 16 kt METAR EHJA 120825Z AUTO 33016KT 9000 FEW006/// SCT009/// BKN021/// 13/11 Q1015
09:55
M
13 °C 10 km+ 1.900 ft 330° 330° 13 kt METAR EHJA 120755Z AUTO 33013KT 260V030 9999 FEW006/// SCT007/// BKN019/// 13/12 Q1015
09:25
M
13 °C 10 km+ 2.400 ft 330° 330° 18 kt METAR EHJA 120725Z AUTO 33018KT 9999 FEW006/// SCT014/// BKN024/// 13/12 Q1015
08:55
M
13 °C 10 km+ 2.400 ft 320° 320° 17 kt METAR EHJA 120655Z AUTO 32017KT 300V360 9999 FEW006/// SCT015/// BKN024/// 13/11 Q1015
08:25
M
13 °C 10 km+ 2.300 ft 330° 330° 15 kt METAR EHJA 120625Z AUTO 33015KT 260V360 9999 FEW006/// SCT009/// BKN023/// 13/12 Q1016
07:55
M
13 °C 10 km+ 1.000 ft 320° 320° 16 kt METAR EHJA 120555Z AUTO 32016KT 260V350 9999 -RADZ FEW006/// SCT008/// BKN010/// 13/12 Q1016
Relatar uma mudança